Climatologie pour Saint-Brevin les Pins
Jour • Résumé pour avril 4, 2017 Système :  Métrique    Anglais   Mixte
« - 1 jour
+ 1 jour »
Jour Semaine Mois Année Personnalisé
  Maximum : Minimum : Moyenne :
Température sous abri : 15.6 °C 7.1 °C 11.4 °C
Point de rosée : 13.4 °C 6.6 °C 9.3 °C
Humidité : 98 % 64 % 88 %
Vitesse du vent : 20.9 km/h 0.0 km/h 5.3 km/h
Rafale : 30.6 km/h - -
Direction :- - SW
Pression : 1027.3 hPa 1025.3 hPa -
Précipitations : 0.5 mm    
Historical Graphs
 
 
Tableau de données pour avril 4, 2017
Heure Tempé Pt rosée Pression Vent Vitesse Rafale Humidité Taux pluie (/hr) Soleil
00:00 9.9 °C 8.7 °C 1026.6 hPa NW 3.2 km/h 6.4 km/h 92 % 0.0 mm 0 W/m2
00:05 9.8 °C 8.6 °C 1027.0 hPa WNW 4.8 km/h 9.7 km/h 92 % 0.0 mm 0 W/m2
00:10 9.8 °C 8.6 °C 1027.0 hPa WNW 1.6 km/h 9.7 km/h 92 % 0.0 mm 0 W/m2
00:15 9.8 °C 8.5 °C 1027.0 hPa NW 8.0 km/h 8.0 km/h 92 % 0.0 mm 0 W/m2
00:20 9.7 °C 8.5 °C 1027.0 hPa NW 1.6 km/h 8.0 km/h 92 % 0.0 mm 0 W/m2
00:25 9.7 °C 8.6 °C 1027.0 hPa WNW 4.8 km/h 8.0 km/h 93 % 0.0 mm 0 W/m2
00:30 9.7 °C 8.6 °C 1027.0 hPa NW 3.2 km/h 9.7 km/h 93 % 0.0 mm 0 W/m2
00:35 9.7 °C 8.5 °C 1027.0 hPa NW 4.8 km/h 9.7 km/h 92 % 0.0 mm 0 W/m2
00:40 9.7 °C 8.5 °C 1027.0 hPa Calm   8.0 km/h 92 % 0.0 mm 0 W/m2
00:50 9.7 °C 8.3 °C 1027.0 hPa NW 4.8 km/h 4.8 km/h 91 % 0.0 mm 0 W/m2
00:55 9.7 °C 8.3 °C 1027.0 hPa Calm   9.7 km/h 91 % 0.0 mm 0 W/m2
01:00 9.6 °C 8.2 °C 1027.0 hPa Calm   9.7 km/h 91 % 0.0 mm 0 W/m2
01:05 9.3 °C 8.1 °C 1026.6 hPa NW 1.6 km/h 9.7 km/h 92 % 0.0 mm 0 W/m2
01:10 9.4 °C 8.2 °C 1026.6 hPa WNW 3.2 km/h 9.7 km/h 92 % 0.0 mm 0 W/m2
01:15 9.3 °C 8.2 °C 1026.6 hPa NNW 3.2 km/h 8.0 km/h 93 % 0.0 mm 0 W/m2
01:20 9.4 °C 8.3 °C 1026.6 hPa NW 3.2 km/h 9.7 km/h 93 % 0.0 mm 0 W/m2
01:25 9.4 °C 8.4 °C 1026.6 hPa NNW 6.4 km/h 9.7 km/h 93 % 0.0 mm 0 W/m2
01:30 9.5 °C 8.6 °C 1026.6 hPa Calm   9.7 km/h 94 % 0.0 mm 0 W/m2
01:35 9.2 °C 8.1 °C 1026.6 hPa Calm   8.0 km/h 93 % 0.0 mm 0 W/m2
01:40 9.1 °C 8.2 °C 1026.6 hPa Calm   8.0 km/h 94 % 0.0 mm 0 W/m2
01:45 9.2 °C 8.3 °C 1026.6 hPa NW 1.6 km/h 11.3 km/h 94 % 0.0 mm 0 W/m2
01:50 9.1 °C 8.1 °C 1026.6 hPa NNW 3.2 km/h 11.3 km/h 94 % 0.0 mm 0 W/m2
01:55 8.9 °C 8.0 °C 1026.6 hPa Calm   6.4 km/h 94 % 0.0 mm 0 W/m2
02:00 8.9 °C 8.2 °C 1026.6 hPa NW 3.2 km/h 11.3 km/h 95 % 0.0 mm 0 W/m2
02:05 9.1 °C 8.3 °C 1026.6 hPa Calm   11.3 km/h 95 % 0.0 mm 0 W/m2
02:10 9.2 °C 8.4 °C 1026.3 hPa NW 3.2 km/h 11.3 km/h 95 % 0.0 mm 0 W/m2
02:15 9.2 °C 8.4 °C 1026.3 hPa NW 1.6 km/h 11.3 km/h 95 % 0.0 mm 0 W/m2
02:20 8.9 °C 8.2 °C 1026.3 hPa WNW 4.8 km/h 8.0 km/h 95 % 0.0 mm 0 W/m2
02:25 8.8 °C 8.1 °C 1026.3 hPa Calm   8.0 km/h 95 % 0.0 mm 0 W/m2
02:30 8.9 °C 8.2 °C 1026.3 hPa NW 1.6 km/h 8.0 km/h 95 % 0.0 mm 0 W/m2
02:40 8.9 °C 8.2 °C 1026.3 hPa Calm   6.4 km/h 95 % 0.0 mm 0 W/m2
02:45 8.8 °C 8.0 °C 1026.3 hPa Calm   8.0 km/h 95 % 0.0 mm 0 W/m2
02:50 8.7 °C 7.9 °C 1026.0 hPa WNW 6.4 km/h 9.7 km/h 95 % 0.0 mm 0 W/m2
02:55 8.7 °C 8.1 °C 1026.0 hPa WNW 1.6 km/h 9.7 km/h 96 % 0.0 mm 0 W/m2
03:00 8.7 °C 8.1 °C 1026.0 hPa NW 3.2 km/h 9.7 km/h 96 % 0.0 mm 0 W/m2
03:05 8.6 °C 8.0 °C 1026.0 hPa NW 1.6 km/h 9.7 km/h 96 % 0.0 mm 0 W/m2
03:10 8.5 °C 7.9 °C 1026.0 hPa Calm   6.4 km/h 96 % 0.0 mm 0 W/m2
03:15 8.5 °C 7.9 °C 1026.0 hPa NW 4.8 km/h 6.4 km/h 96 % 0.0 mm 0 W/m2
03:20 8.4 °C 7.8 °C 1026.0 hPa WNW 3.2 km/h 8.0 km/h 96 % 0.0 mm 0 W/m2
03:25 8.4 °C 7.8 °C 1026.0 hPa WNW 4.8 km/h 9.7 km/h 96 % 0.0 mm 0 W/m2
03:30 8.5 °C 7.9 °C 1026.0 hPa NW 6.4 km/h 9.7 km/h 96 % 0.0 mm 0 W/m2
03:35 8.6 °C 8.0 °C 1026.0 hPa WNW 3.2 km/h 12.9 km/h 96 % 0.0 mm 0 W/m2
03:40 8.7 °C 8.1 °C 1026.0 hPa NW 6.4 km/h 14.5 km/h 96 % 0.0 mm 0 W/m2
03:45 8.8 °C 8.2 °C 1026.0 hPa WNW 4.8 km/h 14.5 km/h 96 % 0.0 mm 0 W/m2
03:50 8.9 °C 8.3 °C 1026.0 hPa WNW 3.2 km/h 11.3 km/h 96 % 0.0 mm 0 W/m2
03:55 8.9 °C 8.3 °C 1026.0 hPa WNW 3.2 km/h 11.3 km/h 96 % 0.0 mm 0 W/m2
04:00 8.8 °C 8.2 °C 1026.0 hPa WNW 3.2 km/h 11.3 km/h 96 % 0.0 mm 0 W/m2
04:05 8.8 °C 8.2 °C 1026.0 hPa NW 4.8 km/h 11.3 km/h 96 % 0.0 mm 0 W/m2
04:10 8.7 °C 8.1 °C 1026.0 hPa WNW 4.8 km/h 11.3 km/h 96 % 0.0 mm 0 W/m2
04:15 8.5 °C 7.9 °C 1026.0 hPa NW 3.2 km/h 9.7 km/h 96 % 0.0 mm 0 W/m2
04:20 8.5 °C 7.9 °C 1026.0 hPa NW 3.2 km/h 9.7 km/h 96 % 0.0 mm 0 W/m2
04:25 8.4 °C 7.8 °C 1026.0 hPa WNW 4.8 km/h 9.7 km/h 96 % 0.0 mm 0 W/m2
04:35 8.3 °C 7.7 °C 1026.0 hPa WNW 3.2 km/h 6.4 km/h 96 % 0.0 mm 0 W/m2
04:40 8.3 °C 7.9 °C 1026.0 hPa NW 1.6 km/h 8.0 km/h 97 % 0.0 mm 0 W/m2
04:50 8.1 °C 7.5 °C 1026.0 hPa WNW 1.6 km/h 6.4 km/h 96 % 0.0 mm 0 W/m2
04:55 7.9 °C 7.3 °C 1026.0 hPa Calm   4.8 km/h 96 % 0.0 mm 0 W/m2
05:05 7.5 °C 6.9 °C 1026.0 hPa Calm   4.8 km/h 96 % 0.0 mm 0 W/m2
05:10 7.3 °C 6.7 °C 1026.0 hPa Calm   4.8 km/h 96 % 0.0 mm 0 W/m2
05:20 7.3 °C 6.9 °C 1026.0 hPa Calm   3.2 km/h 97 % 0.0 mm 0 W/m2
05:25 7.4 °C 7.0 °C 1026.0 hPa Calm   4.8 km/h 97 % 0.0 mm 0 W/m2
05:30 7.4 °C 6.9 °C 1026.0 hPa WNW 1.6 km/h 6.4 km/h 97 % 0.0 mm 0 W/m2
05:35 7.4 °C 7.0 °C 1026.0 hPa Calm   6.4 km/h 97 % 0.0 mm 0 W/m2
05:40 7.5 °C 7.1 °C 1026.0 hPa WNW 4.8 km/h 6.4 km/h 97 % 0.0 mm 0 W/m2
05:45 7.5 °C 7.1 °C 1026.0 hPa Calm   6.4 km/h 97 % 0.0 mm 0 W/m2
05:50 7.6 °C 7.1 °C 1026.0 hPa Calm   3.2 km/h 97 % 0.0 mm 0 W/m2
05:55 7.5 °C 7.1 °C 1026.0 hPa Calm   1.6 km/h 97 % 0.0 mm 0 W/m2
06:00 7.4 °C 6.9 °C 1026.0 hPa Calm   1.6 km/h 97 % 0.0 mm 0 W/m2
06:05 7.3 °C 6.8 °C 1026.0 hPa Calm   3.2 km/h 97 % 0.0 mm 0 W/m2
06:10 7.1 °C 6.6 °C 1026.0 hPa Calm   4.8 km/h 97 % 0.0 mm 0 W/m2
06:15 7.1 °C 6.6 °C 1026.0 hPa Calm   4.8 km/h 97 % 0.0 mm 0 W/m2
06:20 7.2 °C 6.7 °C 1026.0 hPa Calm   8.0 km/h 97 % 0.0 mm 0 W/m2
06:25 7.3 °C 6.8 °C 1026.0 hPa WNW 1.6 km/h 8.0 km/h 97 % 0.0 mm 0 W/m2
06:30 7.3 °C 6.9 °C 1026.0 hPa Calm   6.4 km/h 97 % 0.0 mm 0 W/m2
06:35 7.4 °C 6.9 °C 1026.0 hPa WNW 1.6 km/h 6.4 km/h 97 % 0.0 mm 0 W/m2
06:40 7.5 °C 7.1 °C 1025.6 hPa WNW 3.2 km/h 4.8 km/h 97 % 0.0 mm 0 W/m2
06:45 7.7 °C 7.4 °C 1025.6 hPa Calm   4.8 km/h 98 % 0.0 mm 0 W/m2
06:50 7.8 °C 7.3 °C 1025.6 hPa Calm   3.2 km/h 97 % 0.0 mm 0 W/m2
06:55 7.7 °C 7.2 °C 1025.6 hPa Calm   3.2 km/h 97 % 0.0 mm 0 W/m2
07:00 7.7 °C 7.3 °C 1025.6 hPa Calm   4.8 km/h 97 % 0.0 mm 0 W/m2
07:10 8.2 °C 7.9 °C 1025.6 hPa WNW 1.6 km/h 6.4 km/h 98 % 0.0 mm 0 W/m2
07:15 8.6 °C 8.3 °C 1025.6 hPa West 1.6 km/h 6.4 km/h 98 % 0.0 mm 0 W/m2
07:20 8.9 °C 8.6 °C 1025.6 hPa Calm   6.4 km/h 98 % 0.0 mm 0 W/m2
07:25 9.2 °C 8.9 °C 1025.6 hPa Calm   6.4 km/h 98 % 0.0 mm 0 W/m2
07:30 9.3 °C 9.0 °C 1025.6 hPa Calm   6.4 km/h 98 % 0.0 mm 0 W/m2
07:35 9.4 °C 9.1 °C 1025.6 hPa West 1.6 km/h 3.2 km/h 98 % 0.0 mm 0 W/m2
07:40 9.6 °C 9.3 °C 1026.0 hPa West 1.6 km/h 4.8 km/h 98 % 0.0 mm 0 W/m2
07:45 9.7 °C 9.4 °C 1025.6 hPa West 1.6 km/h 4.8 km/h 98 % 0.0 mm 0 W/m2
07:50 9.8 °C 9.4 °C 1026.0 hPa West 4.8 km/h 6.4 km/h 97 % 0.0 mm 0 W/m2
07:55 9.9 °C 9.6 °C 1026.0 hPa Calm   6.4 km/h 98 % 0.0 mm 0 W/m2
08:00 10.2 °C 9.7 °C 1026.0 hPa West 3.2 km/h 6.4 km/h 97 % 0.0 mm 9 W/m2
08:05 10.3 °C 9.9 °C 1026.0 hPa Calm   6.4 km/h 97 % 0.0 mm 5 W/m2
08:10 10.4 °C 10.0 °C 1026.0 hPa Calm   8.0 km/h 97 % 0.0 mm 7 W/m2
08:15 10.5 °C 10.0 °C 1026.0 hPa WNW 3.2 km/h 9.7 km/h 97 % 0.0 mm 12 W/m2
08:20 10.6 °C 10.1 °C 1026.0 hPa West 4.8 km/h 9.7 km/h 97 % 0.0 mm 25 W/m2
08:25 10.7 °C 10.3 °C 1026.0 hPa WNW 3.2 km/h 14.5 km/h 97 % 0.0 mm 37 W/m2
08:30 10.9 °C 10.3 °C 1026.0 hPa NW 6.4 km/h 14.5 km/h 96 % 0.0 mm 21 W/m2
08:35 10.9 °C 10.3 °C 1026.0 hPa West 11.3 km/h 12.9 km/h 96 % 0.0 mm 30 W/m2
08:40 10.9 °C 10.3 °C 1026.0 hPa WNW 4.8 km/h 12.9 km/h 96 % 0.0 mm 30 W/m2
08:45 11.0 °C 10.4 °C 1026.0 hPa West 12.9 km/h 12.9 km/h 96 % 0.0 mm 35 W/m2
08:50 11.1 °C 10.5 °C 1026.0 hPa WNW 3.2 km/h 12.9 km/h 96 % 0.0 mm 30 W/m2
09:00 11.2 °C 10.6 °C 1026.0 hPa West 9.7 km/h 14.5 km/h 96 % 0.0 mm 30 W/m2
09:05 11.2 °C 10.6 °C 1026.0 hPa WNW 4.8 km/h 14.5 km/h 96 % 0.0 mm 37 W/m2
09:10 11.2 °C 10.6 °C 1026.0 hPa West 1.6 km/h 14.5 km/h 96 % 0.0 mm 35 W/m2
09:15 11.3 °C 10.7 °C 1026.0 hPa West 9.7 km/h 16.1 km/h 96 % 0.0 mm 39 W/m2
09:20 11.3 °C 10.7 °C 1026.0 hPa West 12.9 km/h 16.1 km/h 96 % 0.0 mm 46 W/m2
09:25 11.3 °C 10.7 °C 1026.3 hPa WNW 3.2 km/h 14.5 km/h 96 % 0.0 mm 35 W/m2
09:30 11.3 °C 10.7 °C 1026.3 hPa West 6.4 km/h 12.9 km/h 96 % 0.0 mm 39 W/m2
09:35 11.4 °C 10.9 °C 1026.3 hPa WSW 4.8 km/h 14.5 km/h 97 % 0.0 mm 44 W/m2
09:40 11.4 °C 11.0 °C 1026.3 hPa WNW 11.3 km/h 14.5 km/h 97 % 0.0 mm 49 W/m2
09:45 11.5 °C 11.0 °C 1026.3 hPa WNW 4.8 km/h 14.5 km/h 97 % 0.0 mm 67 W/m2
09:55 11.7 °C 11.2 °C 1026.0 hPa WNW 8.0 km/h 16.1 km/h 97 % 0.0 mm 93 W/m2
10:00 11.8 °C 11.3 °C 1026.0 hPa West 4.8 km/h 14.5 km/h 97 % 0.0 mm 79 W/m2
10:05 11.7 °C 11.3 °C 1026.0 hPa West 3.2 km/h 14.5 km/h 97 % 0.0 mm 74 W/m2
10:10 11.8 °C 11.3 °C 1026.0 hPa WNW 4.8 km/h 12.9 km/h 97 % 0.0 mm 79 W/m2
10:15 11.8 °C 11.3 °C 1026.0 hPa WNW 8.0 km/h 11.3 km/h 97 % 0.0 mm 130 W/m2
10:25 12.0 °C 11.5 °C 1026.0 hPa WNW 4.8 km/h 11.3 km/h 97 % 0.0 mm 118 W/m2
10:35 12.3 °C 11.8 °C 1026.0 hPa NW 4.8 km/h 9.7 km/h 97 % 0.0 mm 276 W/m2
10:40 12.4 °C 11.9 °C 1026.0 hPa Calm   12.9 km/h 97 % 0.0 mm 257 W/m2
10:45 12.7 °C 12.3 °C 1026.0 hPa WNW 3.2 km/h 12.9 km/h 97 % 0.0 mm 174 W/m2
10:50 12.9 °C 12.5 °C 1026.3 hPa NNW 6.4 km/h 12.9 km/h 97 % 0.0 mm 236 W/m2
10:55 12.9 °C 12.3 °C 1026.3 hPa West 6.4 km/h 11.3 km/h 96 % 0.0 mm 183 W/m2
11:00 13.1 °C 12.4 °C 1026.3 hPa WNW 3.2 km/h 11.3 km/h 96 % 0.0 mm 216 W/m2
11:05 13.0 °C 12.2 °C 1026.0 hPa WSW 6.4 km/h 9.7 km/h 95 % 0.0 mm 104 W/m2
11:10 12.8 °C 12.1 °C 1026.0 hPa WNW 4.8 km/h 11.3 km/h 95 % 0.0 mm 167 W/m2
11:15 12.9 °C 12.1 °C 1026.0 hPa WSW 3.2 km/h 11.3 km/h 95 % 0.0 mm 223 W/m2
11:20 13.1 °C 12.3 °C 1026.0 hPa West 4.8 km/h 11.3 km/h 95 % 0.0 mm 93 W/m2
11:25 13.1 °C 12.1 °C 1026.3 hPa NW 6.4 km/h 11.3 km/h 94 % 0.0 mm 51 W/m2
11:30 12.8 °C 11.9 °C 1026.3 hPa NW 4.8 km/h 12.9 km/h 94 % 0.3 mm 113 W/m2
11:35 12.9 °C 12.1 °C 1026.0 hPa NW 6.4 km/h 14.5 km/h 95 % 0.5 mm 190 W/m2
11:40 13.0 °C 12.2 °C 1026.3 hPa WNW 8.0 km/h 14.5 km/h 95 % 0.5 mm 165 W/m2
11:45 13.2 °C 12.4 °C 1026.3 hPa NW 6.4 km/h 12.9 km/h 95 % 0.5 mm 239 W/m2
11:50 13.6 °C 12.9 °C 1026.3 hPa NW 4.8 km/h 11.3 km/h 96 % 0.5 mm 125 W/m2
11:55 13.3 °C 12.5 °C 1026.3 hPa NW 3.2 km/h 9.7 km/h 95 % 0.5 mm 62 W/m2
12:00 13.0 °C 12.1 °C 1026.3 hPa West 9.7 km/h 19.3 km/h 94 % 0.5 mm 93 W/m2
12:05 12.8 °C 12.0 °C 1026.3 hPa NW 4.8 km/h 19.3 km/h 95 % 0.5 mm 179 W/m2
12:10 13.2 °C 12.4 °C 1026.3 hPa NNW 1.6 km/h 14.5 km/h 95 % 0.5 mm 369 W/m2
12:15 14.1 °C 13.4 °C 1026.3 hPa North 4.8 km/h 14.5 km/h 96 % 0.5 mm 302 W/m2
12:20 13.8 °C 12.7 °C 1026.3 hPa NW 9.7 km/h 14.5 km/h 93 % 0.5 mm 302 W/m2
12:25 14.0 °C 12.9 °C 1026.3 hPa NNW 9.7 km/h 14.5 km/h 93 % 0.3 mm 315 W/m2
12:30 14.2 °C 12.9 °C 1026.3 hPa NNW 4.8 km/h 12.9 km/h 92 % 0.3 mm 461 W/m2
12:35 14.8 °C 13.4 °C 1026.3 hPa NW 12.9 km/h 14.5 km/h 91 % 0.0 mm 554 W/m2
12:40 14.9 °C 13.1 °C 1026.3 hPa North 1.6 km/h 16.1 km/h 89 % 0.0 mm 552 W/m2
12:45 14.6 °C 12.5 °C 1026.3 hPa Calm   16.1 km/h 87 % 0.0 mm 304 W/m2
12:50 14.3 °C 12.1 °C 1026.3 hPa North 1.6 km/h 14.5 km/h 87 % 0.0 mm 167 W/m2
12:55 13.9 °C 11.8 °C 1026.3 hPa North 6.4 km/h 14.5 km/h 87 % 0.0 mm 128 W/m2
13:00 13.7 °C 11.8 °C 1026.3 hPa WNW 3.2 km/h 12.9 km/h 88 % 0.0 mm 146 W/m2
13:05 13.6 °C 11.6 °C 1026.3 hPa NW 1.6 km/h 17.7 km/h 88 % 0.0 mm 206 W/m2
13:10 13.5 °C 11.7 °C 1026.3 hPa NW 8.0 km/h 17.7 km/h 89 % 0.0 mm 243 W/m2
13:15 13.8 °C 12.1 °C 1026.3 hPa NNW 11.3 km/h 16.1 km/h 89 % 0.0 mm 381 W/m2
13:20 14.3 °C 12.0 °C 1026.3 hPa NW 9.7 km/h 16.1 km/h 86 % 0.0 mm 459 W/m2
13:25 14.6 °C 12.5 °C 1026.3 hPa NW 9.7 km/h 16.1 km/h 87 % 0.0 mm 464 W/m2
13:30 14.9 °C 12.4 °C 1026.3 hPa West 6.4 km/h 16.1 km/h 85 % 0.0 mm 438 W/m2
13:35 15.1 °C 12.2 °C 1026.3 hPa NW 3.2 km/h 16.1 km/h 83 % 0.0 mm 404 W/m2
13:40 14.9 °C 11.7 °C 1026.3 hPa Calm   14.5 km/h 81 % 0.0 mm 411 W/m2
13:45 14.8 °C 11.7 °C 1026.3 hPa NNW 9.7 km/h 14.5 km/h 82 % 0.0 mm 359 W/m2
13:50 15.0 °C 12.1 °C 1026.3 hPa NNW 11.3 km/h 14.5 km/h 83 % 0.0 mm 292 W/m2
13:55 14.6 °C 11.2 °C 1026.3 hPa NNW 4.8 km/h 16.1 km/h 80 % 0.0 mm 288 W/m2
14:00 14.6 °C 11.3 °C 1026.3 hPa North 8.0 km/h 17.7 km/h 81 % 0.0 mm 260 W/m2
14:05 14.4 °C 11.2 °C 1026.3 hPa NNW 17.7 km/h 30.6 km/h 81 % 0.0 mm 239 W/m2
14:10 14.2 °C 11.0 °C 1026.3 hPa NW 4.8 km/h 30.6 km/h 81 % 0.0 mm 253 W/m2
14:15 14.1 °C 10.3 °C 1026.3 hPa NW 14.5 km/h 22.5 km/h 78 % 0.0 mm 274 W/m2
14:20 14.1 °C 10.5 °C 1026.0 hPa NNW 4.8 km/h 22.5 km/h 79 % 0.0 mm 301 W/m2
14:25 14.3 °C 10.7 °C 1026.0 hPa NNE 6.4 km/h 19.3 km/h 79 % 0.0 mm 352 W/m2
14:30 14.7 °C 11.1 °C 1026.0 hPa NNE 20.9 km/h 20.9 km/h 79 % 0.0 mm 403 W/m2
14:35 14.7 °C 10.7 °C 1026.0 hPa North 9.7 km/h 20.9 km/h 77 % 0.0 mm 308 W/m2
14:40 14.4 °C 10.1 °C 1026.0 hPa North 3.2 km/h 20.9 km/h 75 % 0.0 mm 299 W/m2
14:45 14.4 °C 10.5 °C 1026.0 hPa North 12.9 km/h 20.9 km/h 77 % 0.0 mm 336 W/m2
14:50 14.9 °C 10.9 °C 1026.0 hPa NW 3.2 km/h 20.9 km/h 77 % 0.0 mm 367 W/m2
14:55 15.3 °C 11.1 °C 1026.0 hPa North 11.3 km/h 14.5 km/h 76 % 0.0 mm 473 W/m2
15:00 15.4 °C 10.8 °C 1026.0 hPa WSW 4.8 km/h 20.9 km/h 74 % 0.0 mm 466 W/m2
15:05 15.6 °C 11.4 °C 1026.0 hPa NW 4.8 km/h 20.9 km/h 76 % 0.0 mm 441 W/m2
15:10 15.4 °C 10.2 °C 1026.0 hPa NNE 9.7 km/h 20.9 km/h 71 % 0.0 mm 448 W/m2
15:15 15.5 °C 10.3 °C 1026.0 hPa NNE 12.9 km/h 20.9 km/h 71 % 0.0 mm 408 W/m2
15:20 15.6 °C 11.2 °C 1026.0 hPa Calm   17.7 km/h 75 % 0.0 mm 371 W/m2
15:25 15.4 °C 10.4 °C 1026.0 hPa NW 9.7 km/h 17.7 km/h 72 % 0.0 mm 323 W/m2
15:30 15.1 °C 10.3 °C 1025.6 hPa NW 3.2 km/h 20.9 km/h 73 % 0.0 mm 302 W/m2
15:35 15.0 °C 10.6 °C 1025.6 hPa North 6.4 km/h 20.9 km/h 75 % 0.0 mm 290 W/m2
15:40 14.8 °C 10.0 °C 1025.6 hPa NW 16.1 km/h 20.9 km/h 73 % 0.0 mm 220 W/m2
15:45 14.7 °C 10.1 °C 1025.6 hPa NW 9.7 km/h 20.9 km/h 74 % 0.0 mm 272 W/m2
15:50 14.8 °C 10.2 °C 1025.6 hPa North 8.0 km/h 16.1 km/h 74 % 0.0 mm 301 W/m2
15:55 14.9 °C 9.7 °C 1025.6 hPa NW 4.8 km/h 20.9 km/h 71 % 0.0 mm 206 W/m2
16:00 14.8 °C 9.6 °C 1025.6 hPa North 8.0 km/h 20.9 km/h 71 % 0.0 mm 248 W/m2
16:05 15.0 °C 10.0 °C 1025.6 hPa NNW 8.0 km/h 19.3 km/h 72 % 0.0 mm 297 W/m2
16:10 15.0 °C 9.8 °C 1025.6 hPa NNE 9.7 km/h 20.9 km/h 71 % 0.0 mm 272 W/m2
16:15 15.1 °C 9.8 °C 1025.3 hPa NNE 12.9 km/h 20.9 km/h 71 % 0.0 mm 304 W/m2
16:20 15.2 °C 10.2 °C 1025.3 hPa NW 9.7 km/h 19.3 km/h 72 % 0.0 mm 309 W/m2
16:25 15.2 °C 9.1 °C 1025.3 hPa NE 8.0 km/h 16.1 km/h 67 % 0.0 mm 315 W/m2
16:30 15.2 °C 9.1 °C 1025.3 hPa ENE 4.8 km/h 16.1 km/h 67 % 0.0 mm 443 W/m2
16:35 15.6 °C 9.3 °C 1025.3 hPa NNW 8.0 km/h 19.3 km/h 66 % 0.0 mm 287 W/m2
16:40 15.2 °C 8.6 °C 1025.3 hPa NNE 4.8 km/h 22.5 km/h 65 % 0.0 mm 323 W/m2
16:45 15.1 °C 9.0 °C 1025.3 hPa ENE 1.6 km/h 22.5 km/h 67 % 0.0 mm 346 W/m2
16:55 15.6 °C 8.8 °C 1025.3 hPa NE 11.3 km/h 17.7 km/h 64 % 0.0 mm 283 W/m2
17:00 15.2 °C 8.6 °C 1025.3 hPa NE 12.9 km/h 17.7 km/h 65 % 0.0 mm 178 W/m2
17:05 14.7 °C 8.2 °C 1025.3 hPa NNE 8.0 km/h 20.9 km/h 65 % 0.0 mm 98 W/m2
17:10 14.4 °C 8.8 °C 1025.3 hPa North 12.9 km/h 20.9 km/h 69 % 0.0 mm 91 W/m2
17:15 14.2 °C 8.6 °C 1025.3 hPa NNW 6.4 km/h 22.5 km/h 69 % 0.0 mm 113 W/m2
17:20 14.1 °C 8.7 °C 1025.3 hPa NNE 11.3 km/h 22.5 km/h 70 % 0.0 mm 130 W/m2
17:25 14.1 °C 8.7 °C 1025.3 hPa ENE 12.9 km/h 22.5 km/h 70 % 0.0 mm 137 W/m2
17:30 14.1 °C 8.5 °C 1025.3 hPa NE 6.4 km/h 22.5 km/h 69 % 0.0 mm 118 W/m2
17:35 14.0 °C 8.6 °C 1025.3 hPa ENE 14.5 km/h 22.5 km/h 70 % 0.0 mm 95 W/m2
17:40 13.8 °C 8.5 °C 1025.3 hPa North 4.8 km/h 20.9 km/h 70 % 0.0 mm 69 W/m2
17:45 13.7 °C 8.7 °C 1025.3 hPa North 8.0 km/h 17.7 km/h 72 % 0.0 mm 60 W/m2
17:50 13.5 °C 8.5 °C 1025.3 hPa NNE 16.1 km/h 22.5 km/h 72 % 0.0 mm 58 W/m2
17:55 13.4 °C 8.7 °C 1025.3 hPa North 16.1 km/h 22.5 km/h 73 % 0.0 mm 72 W/m2
18:00 13.4 °C 8.9 °C 1025.3 hPa NNE 6.4 km/h 20.9 km/h 74 % 0.0 mm 95 W/m2
18:05 13.5 °C 9.0 °C 1025.3 hPa East 11.3 km/h 17.7 km/h 74 % 0.0 mm 107 W/m2
18:10 13.6 °C 9.3 °C 1025.3 hPa ENE 6.4 km/h 17.7 km/h 75 % 0.0 mm 113 W/m2
18:15 13.7 °C 9.4 °C 1025.3 hPa North 3.2 km/h 16.1 km/h 75 % 0.0 mm 111 W/m2
18:20 13.7 °C 8.9 °C 1025.3 hPa North 14.5 km/h 17.7 km/h 73 % 0.0 mm 116 W/m2
18:25 13.6 °C 9.1 °C 1025.3 hPa NNE 11.3 km/h 20.9 km/h 74 % 0.0 mm 114 W/m2
18:30 13.6 °C 8.8 °C 1025.6 hPa NE 6.4 km/h 20.9 km/h 73 % 0.0 mm 93 W/m2
18:35 13.6 °C 9.0 °C 1025.6 hPa NE 9.7 km/h 16.1 km/h 74 % 0.0 mm 83 W/m2
18:40 13.5 °C 9.0 °C 1025.6 hPa NE 3.2 km/h 16.1 km/h 74 % 0.0 mm 91 W/m2
18:45 13.5 °C 9.4 °C 1025.6 hPa NNE 4.8 km/h 17.7 km/h 76 % 0.0 mm 93 W/m2
18:50 13.5 °C 9.2 °C 1025.6 hPa NNE 1.6 km/h 17.7 km/h 75 % 0.0 mm 93 W/m2
18:55 13.5 °C 9.4 °C 1025.6 hPa NNE 6.4 km/h 11.3 km/h 76 % 0.0 mm 90 W/m2
19:00 13.5 °C 9.4 °C 1025.6 hPa North 1.6 km/h 11.3 km/h 76 % 0.0 mm 88 W/m2
19:05 13.6 °C 9.4 °C 1025.6 hPa North 3.2 km/h 11.3 km/h 76 % 0.0 mm 102 W/m2
19:10 13.6 °C 9.4 °C 1025.6 hPa North 8.0 km/h 14.5 km/h 76 % 0.0 mm 77 W/m2
19:15 13.4 °C 9.3 °C 1025.6 hPa NNE 12.9 km/h 14.5 km/h 76 % 0.0 mm 62 W/m2
19:25 13.2 °C 9.1 °C 1025.6 hPa North 12.9 km/h 14.5 km/h 76 % 0.0 mm 40 W/m2
19:30 13.1 °C 8.5 °C 1025.6 hPa NNW 8.0 km/h 24.1 km/h 74 % 0.0 mm 39 W/m2
19:35 12.9 °C 8.6 °C 1025.6 hPa North 3.2 km/h 24.1 km/h 75 % 0.0 mm 37 W/m2
19:40 12.8 °C 8.7 °C 1025.6 hPa North 6.4 km/h 22.5 km/h 76 % 0.0 mm 44 W/m2
19:45 12.8 °C 8.8 °C 1025.6 hPa NNE 11.3 km/h 19.3 km/h 77 % 0.0 mm 60 W/m2
19:50 12.7 °C 8.8 °C 1025.6 hPa NNW 9.7 km/h 17.7 km/h 77 % 0.0 mm 62 W/m2
19:55 12.8 °C 8.8 °C 1025.6 hPa NNE 8.0 km/h 17.7 km/h 77 % 0.0 mm 60 W/m2
20:00 12.8 °C 8.7 °C 1025.6 hPa NNE 8.0 km/h 20.9 km/h 76 % 0.0 mm 54 W/m2
20:10 12.6 °C 8.2 °C 1025.6 hPa NE 9.7 km/h 17.7 km/h 75 % 0.0 mm 23 W/m2
20:15 12.3 °C 8.2 °C 1025.6 hPa Calm   16.1 km/h 76 % 0.0 mm 16 W/m2
20:20 11.9 °C 8.0 °C 1025.6 hPa North 3.2 km/h 14.5 km/h 77 % 0.0 mm 12 W/m2
20:25 11.6 °C 7.9 °C 1026.0 hPa North 9.7 km/h 14.5 km/h 78 % 0.0 mm 11 W/m2
20:30 11.4 °C 7.7 °C 1026.0 hPa North 4.8 km/h 14.5 km/h 78 % 0.0 mm 7 W/m2
20:35 11.2 °C 7.7 °C 1026.0 hPa North 1.6 km/h 16.1 km/h 79 % 0.0 mm 5 W/m2
20:40 10.9 °C 7.6 °C 1026.0 hPa North 8.0 km/h 16.1 km/h 80 % 0.0 mm 0 W/m2
20:45 10.8 °C 7.6 °C 1026.0 hPa NNE 9.7 km/h 14.5 km/h 81 % 0.0 mm 0 W/m2
20:50 10.7 °C 7.8 °C 1026.3 hPa NNW 6.4 km/h 17.7 km/h 82 % 0.0 mm 0 W/m2
20:55 10.6 °C 7.6 °C 1026.3 hPa NNE 6.4 km/h 17.7 km/h 82 % 0.0 mm 0 W/m2
21:00 10.7 °C 7.9 °C 1026.3 hPa North 6.4 km/h 16.1 km/h 83 % 0.0 mm 0 W/m2
21:05 10.4 °C 7.7 °C 1026.3 hPa NNE 6.4 km/h 16.1 km/h 83 % 0.0 mm 0 W/m2
21:10 10.3 °C 7.7 °C 1026.3 hPa North 6.4 km/h 14.5 km/h 84 % 0.0 mm 0 W/m2
21:15 10.1 °C 7.5 °C 1026.3 hPa NE 8.0 km/h 12.9 km/h 84 % 0.0 mm 0 W/m2
21:20 9.9 °C 7.5 °C 1026.3 hPa North 3.2 km/h 12.9 km/h 85 % 0.0 mm 0 W/m2
21:25 9.9 °C 7.5 °C 1026.6 hPa North 3.2 km/h 12.9 km/h 85 % 0.0 mm 0 W/m2
21:30 9.8 °C 7.6 °C 1026.6 hPa North 1.6 km/h 12.9 km/h 86 % 0.0 mm 0 W/m2
21:35 9.7 °C 7.5 °C 1026.6 hPa NNE 4.8 km/h 12.9 km/h 86 % 0.0 mm 0 W/m2
21:40 9.6 °C 7.4 °C 1026.6 hPa NNE 3.2 km/h 9.7 km/h 86 % 0.0 mm 0 W/m2
21:45 9.4 °C 7.4 °C 1026.6 hPa North 6.4 km/h 8.0 km/h 87 % 0.0 mm 0 W/m2
21:50 9.4 °C 7.4 °C 1026.6 hPa North 3.2 km/h 9.7 km/h 87 % 0.0 mm 0 W/m2
21:55 9.5 °C 7.4 °C 1027.0 hPa NNE 4.8 km/h 9.7 km/h 87 % 0.0 mm 0 W/m2
22:00 9.6 °C 7.7 °C 1027.0 hPa North 12.9 km/h 12.9 km/h 88 % 0.0 mm 0 W/m2
22:05 9.8 °C 7.9 °C 1027.0 hPa North 6.4 km/h 16.1 km/h 88 % 0.0 mm 0 W/m2
22:10 10.1 °C 8.2 °C 1027.0 hPa NNW 3.2 km/h 16.1 km/h 88 % 0.0 mm 0 W/m2
22:15 10.3 °C 8.3 °C 1027.0 hPa NNE 9.7 km/h 12.9 km/h 87 % 0.0 mm 0 W/m2
22:20 10.5 °C 8.4 °C 1027.0 hPa NNE 8.0 km/h 11.3 km/h 87 % 0.0 mm 0 W/m2
22:25 10.6 °C 8.5 °C 1027.0 hPa North 14.5 km/h 16.1 km/h 87 % 0.0 mm 0 W/m2
22:30 10.7 °C 8.6 °C 1027.0 hPa North 9.7 km/h 16.1 km/h 87 % 0.0 mm 0 W/m2
22:35 10.8 °C 8.7 °C 1027.0 hPa NNE 6.4 km/h 14.5 km/h 87 % 0.0 mm 0 W/m2
22:40 10.8 °C 8.6 °C 1027.3 hPa NNE 8.0 km/h 14.5 km/h 86 % 0.0 mm 0 W/m2
22:45 10.9 °C 8.6 °C 1027.0 hPa North 3.2 km/h 11.3 km/h 86 % 0.0 mm 0 W/m2
22:50 10.9 °C 8.6 °C 1027.3 hPa Calm   16.1 km/h 86 % 0.0 mm 0 W/m2
22:55 10.8 °C 8.8 °C 1027.3 hPa North 4.8 km/h 16.1 km/h 87 % 0.0 mm 0 W/m2
23:00 10.8 °C 8.7 °C 1027.3 hPa North 8.0 km/h 12.9 km/h 87 % 0.0 mm 0 W/m2
23:05 10.8 °C 8.7 °C 1027.3 hPa NNW 3.2 km/h 12.9 km/h 87 % 0.0 mm 0 W/m2
23:10 10.9 °C 8.8 °C 1027.3 hPa North 4.8 km/h 12.9 km/h 87 % 0.0 mm 0 W/m2
23:15 10.9 °C 8.8 °C 1027.3 hPa North 4.8 km/h 12.9 km/h 87 % 0.0 mm 0 W/m2
23:20 10.9 °C 8.9 °C 1027.3 hPa North 4.8 km/h 12.9 km/h 87 % 0.0 mm 0 W/m2
23:25 10.9 °C 8.9 °C 1027.3 hPa North 4.8 km/h 11.3 km/h 87 % 0.0 mm 0 W/m2
23:30 10.9 °C 8.9 °C 1027.3 hPa North 1.6 km/h 11.3 km/h 87 % 0.0 mm 0 W/m2
23:35 10.9 °C 9.0 °C 1027.3 hPa NNW 1.6 km/h 11.3 km/h 88 % 0.0 mm 0 W/m2
23:40 11.0 °C 9.1 °C 1027.3 hPa NNE 3.2 km/h 12.9 km/h 88 % 0.0 mm 0 W/m2
23:45 11.1 °C 9.1 °C 1027.3 hPa NNE 11.3 km/h 16.1 km/h 88 % 0.0 mm 0 W/m2
23:50 11.1 °C 9.2 °C 1027.3 hPa NE 8.0 km/h 16.1 km/h 88 % 0.0 mm 0 W/m2
23:55 11.1 °C 9.2 °C 1027.3 hPa ENE 11.3 km/h 14.5 km/h 88 % 0.0 mm 0 W/m2
Avec l'autorisation de Weather Underground - 1.75 mb